sensor_id;sensor_type;location;lat;lon;timestamp;pressure;altitude;pressure_sealevel;temperature;humidity
49377;BME280;35253;34.688;33.040;2024-01-30T00:01:26;101054.69;;;11.34;100.00
49377;BME280;35253;34.688;33.040;2024-01-30T00:03:52;101053.66;;;11.52;100.00
49377;BME280;35253;34.688;33.040;2024-01-30T00:06:20;101048.94;;;11.57;100.00
49377;BME280;35253;34.688;33.040;2024-01-30T00:08:46;101033.50;;;11.62;100.00
49377;BME280;35253;34.688;33.040;2024-01-30T00:11:15;101027.81;;;11.37;100.00
49377;BME280;35253;34.688;33.040;2024-01-30T00:13:41;101049.53;;;11.46;100.00
49377;BME280;35253;34.688;33.040;2024-01-30T00:16:07;101043.50;;;11.43;100.00
49377;BME280;35253;34.688;33.040;2024-01-30T00:18:34;101040.06;;;11.41;100.00
49377;BME280;35253;34.688;33.040;2024-01-30T00:20:59;101041.78;;;11.42;100.00
49377;BME280;35253;34.688;33.040;2024-01-30T00:23:25;101048.91;;;11.41;100.00
49377;BME280;35253;34.688;33.040;2024-01-30T00:25:51;101041.69;;;11.43;100.00
49377;BME280;35253;34.688;33.040;2024-01-30T00:28:16;101043.69;;;11.40;100.00
49377;BME280;35253;34.688;33.040;2024-01-30T00:30:42;101037.91;;;11.47;100.00
49377;BME280;35253;34.688;33.040;2024-01-30T00:33:08;101034.63;;;11.58;100.00
49377;BME280;35253;34.688;33.040;2024-01-30T00:35:34;101034.63;;;11.58;100.00
49377;BME280;35253;34.688;33.040;2024-01-30T00:38:00;101033.84;;;11.56;100.00
49377;BME280;35253;34.688;33.040;2024-01-30T00:40:26;101041.09;;;11.54;100.00
49377;BME280;35253;34.688;33.040;2024-01-30T00:42:52;101035.91;;;11.51;100.00
49377;BME280;35253;34.688;33.040;2024-01-30T00:45:17;101029.69;;;11.66;100.00
49377;BME280;35253;34.688;33.040;2024-01-30T00:47:43;101030.91;;;11.60;100.00
49377;BME280;35253;34.688;33.040;2024-01-30T00:50:09;101031.75;;;11.77;100.00
49377;BME280;35253;34.688;33.040;2024-01-30T00:52:35;101039.25;;;11.70;100.00
49377;BME280;35253;34.688;33.040;2024-01-30T00:55:01;101017.72;;;11.73;100.00
49377;BME280;35253;34.688;33.040;2024-01-30T00:57:28;101009.88;;;11.70;100.00
49377;BME280;35253;34.688;33.040;2024-01-30T00:59:54;101017.97;;;11.68;100.00
49377;BME280;35253;34.688;33.040;2024-01-30T01:02:20;101004.97;;;11.78;100.00
49377;BME280;35253;34.688;33.040;2024-01-30T01:04:45;101002.22;;;11.64;100.00
49377;BME280;35253;34.688;33.040;2024-01-30T01:07:11;100987.72;;;11.68;100.00
49377;BME280;35253;34.688;33.040;2024-01-30T01:09:37;100989.72;;;11.64;100.00
49377;BME280;35253;34.688;33.040;2024-01-30T01:12:04;100982.84;;;11.60;100.00
49377;BME280;35253;34.688;33.040;2024-01-30T01:14:30;100991.66;;;11.47;100.00
49377;BME280;35253;34.688;33.040;2024-01-30T01:16:56;100986.09;;;11.65;100.00
49377;BME280;35253;34.688;33.040;2024-01-30T01:19:21;100978.72;;;11.55;100.00
49377;BME280;35253;34.688;33.040;2024-01-30T01:21:47;100978.38;;;11.61;100.00
49377;BME280;35253;34.688;33.040;2024-01-30T01:24:13;100970.47;;;11.44;100.00
49377;BME280;35253;34.688;33.040;2024-01-30T01:26:39;100981.66;;;11.50;100.00
49377;BME280;35253;34.688;33.040;2024-01-30T01:29:06;100978.81;;;11.53;100.00
49377;BME280;35253;34.688;33.040;2024-01-30T01:31:36;100971.97;;;11.63;100.00
49377;BME280;35253;34.688;33.040;2024-01-30T01:34:05;100975.09;;;11.56;100.00
49377;BME280;35253;34.688;33.040;2024-01-30T01:36:31;100970.28;;;11.62;100.00
49377;BME280;35253;34.688;33.040;2024-01-30T01:38:56;100968.72;;;11.74;100.00
49377;BME280;35253;34.688;33.040;2024-01-30T01:41:22;100973.03;;;11.61;100.00
49377;BME280;35253;34.688;33.040;2024-01-30T01:43:47;100972.69;;;11.67;100.00
49377;BME280;35253;34.688;33.040;2024-01-30T01:46:13;100963.56;;;11.55;100.00
49377;BME280;35253;34.688;33.040;2024-01-30T01:48:39;100969.56;;;11.59;100.00
49377;BME280;35253;34.688;33.040;2024-01-30T01:51:05;100968.69;;;11.58;100.00
49377;BME280;35253;34.688;33.040;2024-01-30T01:53:32;100970.16;;;11.64;100.00
49377;BME280;35253;34.688;33.040;2024-01-30T01:55:57;100972.13;;;11.76;100.00
49377;BME280;35253;34.688;33.040;2024-01-30T01:58:26;100958.41;;;11.82;100.00
49377;BME280;35253;34.688;33.040;2024-01-30T02:00:54;100955.75;;;11.82;100.00
49377;BME280;35253;34.688;33.040;2024-01-30T02:03:21;100954.88;;;11.82;100.00
49377;BME280;35253;34.688;33.040;2024-01-30T02:05:47;100948.69;;;11.81;100.00
49377;BME280;35253;34.688;33.040;2024-01-30T02:08:13;100954.56;;;11.72;100.00
49377;BME280;35253;34.688;33.040;2024-01-30T02:10:38;100950.34;;;11.68;100.00
49377;BME280;35253;34.688;33.040;2024-01-30T02:13:04;100944.03;;;11.69;100.00
49377;BME280;35253;34.688;33.040;2024-01-30T02:15:30;100943.72;;;11.75;100.00
49377;BME280;35253;34.688;33.040;2024-01-30T02:17:56;100945.06;;;11.82;100.00
49377;BME280;35253;34.688;33.040;2024-01-30T02:20:23;100948.31;;;11.87;100.00
49377;BME280;35253;34.688;33.040;2024-01-30T02:22:52;100949.84;;;11.91;100.00
49377;BME280;35253;34.688;33.040;2024-01-30T02:25:18;100944.13;;;11.83;100.00
49377;BME280;35253;34.688;33.040;2024-01-30T02:27:43;100944.88;;;11.85;100.00
49377;BME280;35253;34.688;33.040;2024-01-30T02:30:10;100944.13;;;11.83;100.00
49377;BME280;35253;34.688;33.040;2024-01-30T02:32:35;100946.59;;;11.86;100.00
49377;BME280;35253;34.688;33.040;2024-01-30T02:35:01;100944.53;;;11.91;100.00
49377;BME280;35253;34.688;33.040;2024-01-30T02:37:27;100954.47;;;12.03;100.00
49377;BME280;35253;34.688;33.040;2024-01-30T02:39:53;100942.44;;;11.96;100.00
49377;BME280;35253;34.688;33.040;2024-01-30T02:42:18;100947.38;;;12.02;100.00
49377;BME280;35253;34.688;33.040;2024-01-30T02:44:44;100959.81;;;12.03;100.00
49377;BME280;35253;34.688;33.040;2024-01-30T02:47:10;100954.47;;;12.03;100.00
49377;BME280;35253;34.688;33.040;2024-01-30T02:49:35;100955.59;;;11.99;100.00
49377;BME280;35253;34.688;33.040;2024-01-30T02:52:01;100951.69;;;12.05;100.00
49377;BME280;35253;34.688;33.040;2024-01-30T02:54:26;100943.09;;;12.00;100.00
49377;BME280;35253;34.688;33.040;2024-01-30T02:56:52;100930.00;;;11.95;100.00
49377;BME280;35253;34.688;33.040;2024-01-30T02:59:18;100939.94;;;11.93;100.00
49377;BME280;35253;34.688;33.040;2024-01-30T03:01:44;100936.31;;;11.94;100.00
49377;BME280;35253;34.688;33.040;2024-01-30T03:04:10;100929.81;;;11.98;100.00
49377;BME280;35253;34.688;33.040;2024-01-30T03:06:36;100929.38;;;12.06;100.00
49377;BME280;35253;34.688;33.040;2024-01-30T03:09:02;100932.72;;;12.09;100.00
49377;BME280;35253;34.688;33.040;2024-01-30T03:11:28;100936.41;;;11.93;100.00
49377;BME280;35253;34.688;33.040;2024-01-30T03:13:53;100938.50;;;11.88;100.00
49377;BME280;35253;34.688;33.040;2024-01-30T03:16:19;100934.38;;;11.82;100.00
49377;BME280;35253;34.688;33.040;2024-01-30T03:18:45;100941.66;;;11.80;100.00
49377;BME280;35253;34.688;33.040;2024-01-30T03:21:10;100943.53;;;11.78;100.00
49377;BME280;35253;34.688;33.040;2024-01-30T03:23:36;100950.06;;;11.88;100.00
49377;BME280;35253;34.688;33.040;2024-01-30T03:26:02;100967.53;;;12.08;100.00
49377;BME280;35253;34.688;33.040;2024-01-30T03:28:29;100970.13;;;12.09;100.00
49377;BME280;35253;34.688;33.040;2024-01-30T03:30:55;100981.13;;;12.19;100.00
49377;BME280;35253;34.688;33.040;2024-01-30T03:33:21;100980.84;;;12.24;100.00
49377;BME280;35253;34.688;33.040;2024-01-30T03:35:46;100991.44;;;12.25;100.00
49377;BME280;35253;34.688;33.040;2024-01-30T03:38:12;100981.00;;;12.20;100.00
49377;BME280;35253;34.688;33.040;2024-01-30T03:40:37;100988.09;;;12.22;100.00
49377;BME280;35253;34.688;33.040;2024-01-30T03:43:03;100992.69;;;12.19;100.00
49377;BME280;35253;34.688;33.040;2024-01-30T03:45:30;100989.81;;;12.23;100.00
49377;BME280;35253;34.688;33.040;2024-01-30T03:47:56;100992.69;;;12.19;100.00
49377;BME280;35253;34.688;33.040;2024-01-30T03:50:21;100998.78;;;12.22;100.00
49377;BME280;35253;34.688;33.040;2024-01-30T03:52:47;101000.28;;;12.11;100.00
49377;BME280;35253;34.688;33.040;2024-01-30T03:55:12;101009.16;;;11.98;100.00
49377;BME280;35253;34.688;33.040;2024-01-30T03:57:38;100991.31;;;12.12;100.00
49377;BME280;35253;34.688;33.040;2024-01-30T04:00:06;100992.34;;;11.96;100.00
49377;BME280;35253;34.688;33.040;2024-01-30T04:02:32;100998.81;;;11.92;100.00
49377;BME280;35253;34.688;33.040;2024-01-30T04:04:57;101000.28;;;11.97;100.00
49377;BME280;35253;34.688;33.040;2024-01-30T04:07:24;101000.41;;;11.80;100.00
49377;BME280;35253;34.688;33.040;2024-01-30T04:09:49;100997.47;;;11.85;100.00
49377;BME280;35253;34.688;33.040;2024-01-30T04:12:15;100989.88;;;11.77;100.00
49377;BME280;35253;34.688;33.040;2024-01-30T04:14:40;100994.03;;;11.67;100.00
49377;BME280;35253;34.688;33.040;2024-01-30T04:17:06;100984.72;;;11.74;100.00
49377;BME280;35253;34.688;33.040;2024-01-30T04:19:32;100992.13;;;11.69;100.00
49377;BME280;35253;34.688;33.040;2024-01-30T04:21:57;100983.91;;;11.58;100.00
49377;BME280;35253;34.688;33.040;2024-01-30T04:24:23;100977.22;;;11.35;100.00
49377;BME280;35253;34.688;33.040;2024-01-30T04:26:49;100982.53;;;11.35;100.00
49377;BME280;35253;34.688;33.040;2024-01-30T04:29:14;100988.03;;;11.32;100.00
49377;BME280;35253;34.688;33.040;2024-01-30T04:31:40;100988.34;;;11.27;100.00
49377;BME280;35253;34.688;33.040;2024-01-30T04:34:05;100994.44;;;11.29;100.00
49377;BME280;35253;34.688;33.040;2024-01-30T04:36:31;100991.69;;;11.31;100.00
49377;BME280;35253;34.688;33.040;2024-01-30T04:38:57;100994.50;;;11.28;100.00
49377;BME280;35253;34.688;33.040;2024-01-30T04:41:23;100988.22;;;11.29;100.00
49377;BME280;35253;34.688;33.040;2024-01-30T04:43:48;100996.34;;;11.27;100.00
49377;BME280;35253;34.688;33.040;2024-01-30T04:46:14;100987.31;;;11.14;100.00
49377;BME280;35253;34.688;33.040;2024-01-30T04:48:40;100998.75;;;11.16;100.00
49377;BME280;35253;34.688;33.040;2024-01-30T04:51:05;101005.63;;;11.05;100.00
49377;BME280;35253;34.688;33.040;2024-01-30T04:53:31;101013.00;;;10.84;100.00
49377;BME280;35253;34.688;33.040;2024-01-30T04:55:57;101015.66;;;10.84;100.00
49377;BME280;35253;34.688;33.040;2024-01-30T04:58:22;101015.56;;;10.70;100.00
49377;BME280;35253;34.688;33.040;2024-01-30T05:00:48;101008.84;;;10.63;100.00
49377;BME280;35253;34.688;33.040;2024-01-30T05:03:20;101007.94;;;10.47;100.00
49377;BME280;35253;34.688;33.040;2024-01-30T05:05:47;101022.41;;;10.58;100.00
49377;BME280;35253;34.688;33.040;2024-01-30T05:08:13;101018.97;;;10.56;100.00
49377;BME280;35253;34.688;33.040;2024-01-30T05:10:39;101020.91;;;10.70;100.00
49377;BME280;35253;34.688;33.040;2024-01-30T05:13:04;101014.91;;;10.82;100.00
49377;BME280;35253;34.688;33.040;2024-01-30T05:15:30;101012.66;;;10.90;100.00
49377;BME280;35253;34.688;33.040;2024-01-30T05:17:56;101008.56;;;11.00;100.00
49377;BME280;35253;34.688;33.040;2024-01-30T05:20:22;100994.53;;;10.97;100.00
49377;BME280;35253;34.688;33.040;2024-01-30T05:22:47;100983.06;;;10.95;100.00
49377;BME280;35253;34.688;33.040;2024-01-30T05:25:13;100974.38;;;11.07;100.00
49377;BME280;35253;34.688;33.040;2024-01-30T05:27:39;100971.03;;;11.03;100.00
49377;BME280;35253;34.688;33.040;2024-01-30T05:30:06;100975.25;;;11.07;100.00
49377;BME280;35253;34.688;33.040;2024-01-30T05:32:32;100972.84;;;11.18;100.00
49377;BME280;35253;34.688;33.040;2024-01-30T05:34:57;100969.81;;;11.24;100.00
49377;BME280;35253;34.688;33.040;2024-01-30T05:37:23;100967.47;;;11.34;100.00
49377;BME280;35253;34.688;33.040;2024-01-30T05:39:49;100958.59;;;11.34;100.00
49377;BME280;35253;34.688;33.040;2024-01-30T05:42:15;100962.06;;;11.36;100.00
49377;BME280;35253;34.688;33.040;2024-01-30T05:44:42;100960.31;;;11.35;100.00
49377;BME280;35253;34.688;33.040;2024-01-30T05:47:08;100960.25;;;11.36;100.00
49377;BME280;35253;34.688;33.040;2024-01-30T05:49:33;100962.00;;;11.51;100.00
49377;BME280;35253;34.688;33.040;2024-01-30T05:52:01;100958.88;;;11.59;100.00
49377;BME280;35253;34.688;33.040;2024-01-30T05:54:27;100950.88;;;11.59;100.00
49377;BME280;35253;34.688;33.040;2024-01-30T05:56:53;100944.91;;;11.69;100.00
49377;BME280;35253;34.688;33.040;2024-01-30T05:59:18;100948.88;;;11.78;100.00
49377;BME280;35253;34.688;33.040;2024-01-30T06:01:47;100953.88;;;11.84;100.00
49377;BME280;35253;34.688;33.040;2024-01-30T06:04:14;100950.06;;;11.88;100.00
49377;BME280;35253;34.688;33.040;2024-01-30T06:06:40;100954.66;;;12.00;100.00
49377;BME280;35253;34.688;33.040;2024-01-30T06:09:06;100954.47;;;12.03;100.00
49377;BME280;35253;34.688;33.040;2024-01-30T06:11:33;100943.88;;;12.16;100.00
49377;BME280;35253;34.688;33.040;2024-01-30T06:13:59;100939.03;;;12.23;100.00
49377;BME280;35253;34.688;33.040;2024-01-30T06:16:24;100934.91;;;12.17;100.00
49377;BME280;35253;34.688;33.040;2024-01-30T06:18:55;100915.44;;;12.15;100.00
49377;BME280;35253;34.688;33.040;2024-01-30T06:21:21;100907.88;;;12.07;100.00
49377;BME280;35253;34.688;33.040;2024-01-30T06:23:46;100914.88;;;12.24;100.00
49377;BME280;35253;34.688;33.040;2024-01-30T06:26:12;100917.44;;;12.26;100.00
49377;BME280;35253;34.688;33.040;2024-01-30T06:28:38;100915.34;;;12.31;100.00
49377;BME280;35253;34.688;33.040;2024-01-30T06:31:04;100910.00;;;12.31;100.00
49377;BME280;35253;34.688;33.040;2024-01-30T06:33:29;100919.53;;;12.35;100.00
49377;BME280;35253;34.688;33.040;2024-01-30T06:35:55;100922.97;;;12.51;100.00
49377;BME280;35253;34.688;33.040;2024-01-30T06:38:20;100920.50;;;12.48;100.00
49377;BME280;35253;34.688;33.040;2024-01-30T06:40:46;100927.47;;;12.50;100.00
49377;BME280;35253;34.688;33.040;2024-01-30T06:43:12;100928.59;;;12.60;100.00
49377;BME280;35253;34.688;33.040;2024-01-30T06:45:37;100923.31;;;12.73;100.00
49377;BME280;35253;34.688;33.040;2024-01-30T06:48:03;100933.25;;;12.85;100.00
49377;BME280;35253;34.688;33.040;2024-01-30T06:50:29;100925.41;;;12.82;100.00
49377;BME280;35253;34.688;33.040;2024-01-30T06:52:55;100923.50;;;12.84;100.00
49377;BME280;35253;34.688;33.040;2024-01-30T06:55:20;100928.19;;;12.81;100.00
49377;BME280;35253;34.688;33.040;2024-01-30T06:57:46;100930.66;;;12.84;100.00
49377;BME280;35253;34.688;33.040;2024-01-30T07:00:12;100927.19;;;12.96;100.00
49377;BME280;35253;34.688;33.040;2024-01-30T07:02:39;100935.88;;;12.99;100.00
49377;BME280;35253;34.688;33.040;2024-01-30T07:05:04;100947.44;;;13.00;100.00
49377;BME280;35253;34.688;33.040;2024-01-30T07:07:30;100931.66;;;13.09;100.00
49377;BME280;35253;34.688;33.040;2024-01-30T07:09:56;100940.06;;;13.18;100.00
49377;BME280;35253;34.688;33.040;2024-01-30T07:12:25;100931.91;;;13.33;100.00
49377;BME280;35253;34.688;33.040;2024-01-30T07:14:51;100922.78;;;13.36;100.00
49377;BME280;35253;34.688;33.040;2024-01-30T07:17:17;100918.72;;;13.43;100.00
49377;BME280;35253;34.688;33.040;2024-01-30T07:19:43;100926.66;;;13.44;100.00
49377;BME280;35253;34.688;33.040;2024-01-30T07:22:08;100925.19;;;13.53;100.00
49377;BME280;35253;34.688;33.040;2024-01-30T07:24:34;100917.50;;;13.61;100.00
49377;BME280;35253;34.688;33.040;2024-01-30T07:27:00;100921.97;;;13.61;100.00
49377;BME280;35253;34.688;33.040;2024-01-30T07:29:26;100928.97;;;13.63;100.00
49377;BME280;35253;34.688;33.040;2024-01-30T07:31:51;100928.47;;;13.83;100.00
49377;BME280;35253;34.688;33.040;2024-01-30T07:34:17;100926.31;;;13.88;100.00
49377;BME280;35253;34.688;33.040;2024-01-30T07:36:43;100937.81;;;13.90;100.00
49377;BME280;35253;34.688;33.040;2024-01-30T07:39:09;100932.56;;;14.02;100.00
49377;BME280;35253;34.688;33.040;2024-01-30T07:41:35;100932.78;;;13.98;100.00
49377;BME280;35253;34.688;33.040;2024-01-30T07:44:02;100933.81;;;13.83;100.00
49377;BME280;35253;34.688;33.040;2024-01-30T07:46:28;100938.44;;;13.81;100.00
49377;BME280;35253;34.688;33.040;2024-01-30T07:48:54;100941.75;;;13.72;100.00
49377;BME280;35253;34.688;33.040;2024-01-30T07:51:21;100951.81;;;13.69;100.00
49377;BME280;35253;34.688;33.040;2024-01-30T07:53:46;100949.03;;;13.70;100.00
49377;BME280;35253;34.688;33.040;2024-01-30T07:56:12;100940.13;;;13.82;100.00
49377;BME280;35253;34.688;33.040;2024-01-30T07:58:38;100947.50;;;13.66;100.00
49377;BME280;35253;34.688;33.040;2024-01-30T08:01:03;100944.72;;;13.55;100.00
49377;BME280;35253;34.688;33.040;2024-01-30T08:03:29;100951.91;;;13.67;100.00
49377;BME280;35253;34.688;33.040;2024-01-30T08:05:55;100951.63;;;13.84;100.00
49377;BME280;35253;34.688;33.040;2024-01-30T08:08:20;100955.38;;;13.82;100.00
49377;BME280;35253;34.688;33.040;2024-01-30T08:10:46;100953.78;;;13.92;100.00
49377;BME280;35253;34.688;33.040;2024-01-30T08:13:12;100956.75;;;13.87;100.00
49377;BME280;35253;34.688;33.040;2024-01-30T08:15:37;100937.03;;;13.76;100.00
49377;BME280;35253;34.688;33.040;2024-01-30T08:18:03;100944.44;;;13.72;100.00
49377;BME280;35253;34.688;33.040;2024-01-30T08:20:29;100946.47;;;13.81;100.00
49377;BME280;35253;34.688;33.040;2024-01-30T08:22:55;100952.44;;;13.60;100.00
49377;BME280;35253;34.688;33.040;2024-01-30T08:25:21;100949.53;;;13.63;100.00
49377;BME280;35253;34.688;33.040;2024-01-30T08:27:47;100953.81;;;13.65;100.00
49377;BME280;35253;34.688;33.040;2024-01-30T08:30:12;100958.56;;;13.35;100.00
49377;BME280;35253;34.688;33.040;2024-01-30T08:32:38;100961.75;;;13.54;100.00
49377;BME280;35253;34.688;33.040;2024-01-30T08:35:04;100970.34;;;13.59;100.00
49377;BME280;35253;34.688;33.040;2024-01-30T08:37:30;100969.38;;;13.60;100.00
49377;BME280;35253;34.688;33.040;2024-01-30T08:39:55;100970.94;;;13.50;100.00
49377;BME280;35253;34.688;33.040;2024-01-30T08:42:21;100970.66;;;13.67;100.00
49377;BME280;35253;34.688;33.040;2024-01-30T08:44:48;100960.34;;;13.61;100.00
49377;BME280;35253;34.688;33.040;2024-01-30T08:47:15;100959.75;;;13.70;100.00
49377;BME280;35253;34.688;33.040;2024-01-30T08:49:43;100960.69;;;13.69;100.00
49377;BME280;35253;34.688;33.040;2024-01-30T08:52:13;100946.88;;;13.63;100.00
49377;BME280;35253;34.688;33.040;2024-01-30T08:54:38;100959.13;;;13.79;100.00
49377;BME280;35253;34.688;33.040;2024-01-30T08:57:04;100948.72;;;13.75;100.00
49377;BME280;35253;34.688;33.040;2024-01-30T08:59:30;100955.13;;;13.60;100.00
49377;BME280;35253;34.688;33.040;2024-01-30T09:01:55;100948.19;;;13.43;100.00
49377;BME280;35253;34.688;33.040;2024-01-30T09:04:23;100948.19;;;13.43;100.00
49377;BME280;35253;34.688;33.040;2024-01-30T09:06:49;100949.97;;;13.30;100.00
49377;BME280;35253;34.688;33.040;2024-01-30T09:09:14;100949.03;;;13.17;100.00
49377;BME280;35253;34.688;33.040;2024-01-30T09:11:40;100951.97;;;13.26;100.00
49377;BME280;35253;34.688;33.040;2024-01-30T09:14:06;100947.72;;;13.09;100.00
49377;BME280;35253;34.688;33.040;2024-01-30T09:16:32;100933.41;;;13.11;100.00
49377;BME280;35253;34.688;33.040;2024-01-30T09:18:58;100941.81;;;12.90;100.00
49377;BME280;35253;34.688;33.040;2024-01-30T09:21:23;100934.59;;;12.78;100.00
49377;BME280;35253;34.688;33.040;2024-01-30T09:23:49;100938.34;;;12.47;100.00
49377;BME280;35253;34.688;33.040;2024-01-30T09:26:15;100942.09;;;12.59;100.00
49377;BME280;35253;34.688;33.040;2024-01-30T09:28:40;100948.66;;;12.39;100.00
49377;BME280;35253;34.688;33.040;2024-01-30T09:31:11;100939.97;;;12.36;100.00
49377;BME280;35253;34.688;33.040;2024-01-30T09:33:38;100937.97;;;12.25;100.00
49377;BME280;35253;34.688;33.040;2024-01-30T09:36:05;100939.03;;;12.23;100.00
49377;BME280;35253;34.688;33.040;2024-01-30T09:38:31;100943.00;;;12.15;100.00
49377;BME280;35253;34.688;33.040;2024-01-30T09:41:03;100942.66;;;12.22;100.00
49377;BME280;35253;34.688;33.040;2024-01-30T09:43:33;100935.59;;;12.35;100.00
49377;BME280;35253;34.688;33.040;2024-01-30T09:46:00;100931.97;;;12.50;100.00
49377;BME280;35253;34.688;33.040;2024-01-30T09:48:29;100931.56;;;12.56;100.00
49377;BME280;35253;34.688;33.040;2024-01-30T09:50:56;100917.34;;;12.41;100.00
49377;BME280;35253;34.688;33.040;2024-01-30T09:53:22;100905.75;;;12.55;100.00
49377;BME280;35253;34.688;33.040;2024-01-30T09:55:50;100906.09;;;12.50;100.00
49377;BME280;35253;34.688;33.040;2024-01-30T09:58:16;100895.63;;;12.60;100.00
49377;BME280;35253;34.688;33.040;2024-01-30T10:00:42;100903.69;;;12.87;100.00
49377;BME280;35253;34.688;33.040;2024-01-30T10:03:08;100898.09;;;12.77;100.00
49377;BME280;35253;34.688;33.040;2024-01-30T10:05:35;100891.03;;;12.76;100.00
49377;BME280;35253;34.688;33.040;2024-01-30T10:08:06;100881.84;;;12.80;100.00
49377;BME280;35253;34.688;33.040;2024-01-30T10:10:34;100884.94;;;13.01;100.00
49377;BME280;35253;34.688;33.040;2024-01-30T10:13:00;100870.38;;;13.05;100.00
49377;BME280;35253;34.688;33.040;2024-01-30T10:15:28;100866.50;;;12.96;100.00
49377;BME280;35253;34.688;33.040;2024-01-30T10:17:53;100858.06;;;13.02;100.00
49377;BME280;35253;34.688;33.040;2024-01-30T10:20:19;100856.97;;;13.19;100.00
49377;BME280;35253;34.688;33.040;2024-01-30T10:22:48;100840.63;;;13.09;100.00
49377;BME280;35253;34.688;33.040;2024-01-30T10:25:15;100833.69;;;13.34;100.00
49377;BME280;35253;34.688;33.040;2024-01-30T10:27:40;100831.19;;;13.43;100.00
49377;BME280;35253;34.688;33.040;2024-01-30T10:30:07;100834.56;;;13.72;100.00
49377;BME280;35253;34.688;33.040;2024-01-30T10:32:36;100834.34;;;13.75;100.00
49377;BME280;35253;34.688;33.040;2024-01-30T10:35:02;100833.91;;;13.94;100.00
49377;BME280;35253;34.688;33.040;2024-01-30T10:37:29;100814.28;;;13.93;100.00
49377;BME280;35253;34.688;33.040;2024-01-30T10:40:02;100809.47;;;13.86;100.00
49377;BME280;35253;34.688;33.040;2024-01-30T10:42:31;100808.09;;;13.80;100.00
49377;BME280;35253;34.688;33.040;2024-01-30T10:45:07;100808.63;;;13.85;100.00
49377;BME280;35253;34.688;33.040;2024-01-30T10:47:35;100815.59;;;13.75;100.00
49377;BME280;35253;34.688;33.040;2024-01-30T10:50:02;100820.81;;;13.51;100.00
49377;BME280;35253;34.688;33.040;2024-01-30T10:52:28;100812.31;;;13.20;100.00
49377;BME280;35253;34.688;33.040;2024-01-30T10:54:55;100808.31;;;13.13;100.00
49377;BME280;35253;34.688;33.040;2024-01-30T10:57:25;100800.97;;;12.89;100.00
49377;BME280;35253;34.688;33.040;2024-01-30T10:59:58;100796.66;;;12.87;100.00
49377;BME280;35253;34.688;33.040;2024-01-30T11:02:25;100798.34;;;12.75;100.00
49377;BME280;35253;34.688;33.040;2024-01-30T11:04:58;100800.75;;;12.92;100.00
49377;BME280;35253;34.688;33.040;2024-01-30T11:07:25;100803.75;;;12.88;100.00
49377;BME280;35253;34.688;33.040;2024-01-30T11:10:01;100794.44;;;12.93;100.00
49377;BME280;35253;34.688;33.040;2024-01-30T11:12:29;100785.66;;;13.18;100.00
49377;BME280;35253;34.688;33.040;2024-01-30T11:15:08;100783.06;;;13.17;100.00
49377;BME280;35253;34.688;33.040;2024-01-30T11:17:50;100781.16;;;13.19;100.00
49377;BME280;35253;34.688;33.040;2024-01-30T11:20:25;100771.94;;;13.23;100.00
49377;BME280;35253;34.688;33.040;2024-01-30T11:22:53;100770.22;;;13.22;100.00
49377;BME280;35253;34.688;33.040;2024-01-30T11:25:21;100768.88;;;13.29;100.00
49377;BME280;35253;34.688;33.040;2024-01-30T11:27:49;100760.81;;;13.29;100.00
49377;BME280;35253;34.688;33.040;2024-01-30T11:30:31;100750.75;;;13.20;100.00
49377;BME280;35253;34.688;33.040;2024-01-30T11:33:08;100755.47;;;13.29;100.00
49377;BME280;35253;34.688;33.040;2024-01-30T11:35:40;100743.44;;;13.22;100.00
49377;BME280;35253;34.688;33.040;2024-01-30T11:38:11;100753.22;;;13.23;100.00
49377;BME280;35253;34.688;33.040;2024-01-30T11:40:39;100748.13;;;13.05;100.00
49377;BME280;35253;34.688;33.040;2024-01-30T11:43:06;100745.97;;;12.98;100.00
49377;BME280;35253;34.688;33.040;2024-01-30T11:45:33;100745.53;;;13.04;100.00
49377;BME280;35253;34.688;33.040;2024-01-30T11:47:59;100730.56;;;13.01;100.00
49377;BME280;35253;34.688;33.040;2024-01-30T11:50:29;100735.44;;;12.95;100.00
49377;BME280;35253;34.688;33.040;2024-01-30T11:52:55;100733.53;;;12.97;100.00
49377;BME280;35253;34.688;33.040;2024-01-30T11:55:23;100746.78;;;12.86;100.00
49377;BME280;35253;34.688;33.040;2024-01-30T11:57:48;100749.91;;;12.92;100.00
49377;BME280;35253;34.688;33.040;2024-01-30T12:00:15;100747.25;;;12.92;100.00
49377;BME280;35253;34.688;33.040;2024-01-30T12:02:42;100751.09;;;12.88;100.00
49377;BME280;35253;34.688;33.040;2024-01-30T12:05:09;100752.38;;;12.95;100.00
49377;BME280;35253;34.688;33.040;2024-01-30T12:07:35;100758.50;;;12.97;100.00
49377;BME280;35253;34.688;33.040;2024-01-30T12:10:02;100765.00;;;12.93;100.00
49377;BME280;35253;34.688;33.040;2024-01-30T12:12:28;100756.22;;;12.91;100.00
49377;BME280;35253;34.688;33.040;2024-01-30T12:14:55;100762.19;;;12.82;100.00
49377;BME280;35253;34.688;33.040;2024-01-30T12:17:29;100763.50;;;12.89;100.00
49377;BME280;35253;34.688;33.040;2024-01-30T12:22:36;100764.69;;;12.85;100.00
49377;BME280;35253;34.688;33.040;2024-01-30T12:25:24;100756.66;;;12.85;100.00
49377;BME280;35253;34.688;33.040;2024-01-30T12:27:50;100760.47;;;12.81;100.00
49377;BME280;35253;34.688;33.040;2024-01-30T12:30:18;100753.50;;;12.79;100.00